Main page
METAR-TAF:

METAR-TAF

Airports :

O'Neill Municipal Airport

O'Neill, Nebraska, United States

latitude: 42-28N, longitude: 098-41W, elevation: 2030 ft

Current weather observation

The report was made 29 minutes ago, at 13:55 UTC
Wind 9 mph from the South/Southwest
Temperature 28°F
Humidity 86%
Pressure 29.95 in. Hg
Visibility: 10 miles
Clear sky

METAR: KONL 221355Z AUTO 20008KT 10SM CLR M02/M04 A2995 RMK AO2 T10221044

Time: 08:24 (14:24 UTC)


TAF: missing

Weather observations and forecasts of more than 4000 airports (METAR and TAF reports).

The available stations are represented by yellow and red dots on the map.

Hover mouse over dot to see the name of the station.

Then click to see weather observations and forecasts.

To change the map : click on the green buttons with a black cross to zoom in, on the green button with a dash to zoom out, or on the green arrows for adjacent maps.


METAR-TAF: